sensor_id;sensor_type;location;lat;lon;timestamp;temperature;humidity
3792;DHT22;1911;53.768;11.474;2024-01-25T00:00:17;7.80;99.90
3792;DHT22;1911;53.768;11.474;2024-01-25T00:02:43;7.70;98.60
3792;DHT22;1911;53.768;11.474;2024-01-25T00:05:08;7.70;99.90
3792;DHT22;1911;53.768;11.474;2024-01-25T00:07:34;7.80;90.70
3792;DHT22;1911;53.768;11.474;2024-01-25T00:10:00;7.80;69.20
3792;DHT22;1911;53.768;11.474;2024-01-25T00:12:26;7.80;76.20
3792;DHT22;1911;53.768;11.474;2024-01-25T00:14:53;7.80;54.60
3792;DHT22;1911;53.768;11.474;2024-01-25T00:17:18;7.80;38.80
3792;DHT22;1911;53.768;11.474;2024-01-25T00:19:44;7.80;47.50
3792;DHT22;1911;53.768;11.474;2024-01-25T00:22:09;7.80;20.30
3792;DHT22;1911;53.768;11.474;2024-01-25T00:24:35;7.80;41.60
3792;DHT22;1911;53.768;11.474;2024-01-25T00:27:02;7.80;40.30
3792;DHT22;1911;53.768;11.474;2024-01-25T00:29:30;7.80;34.50
3792;DHT22;1911;53.768;11.474;2024-01-25T00:31:56;7.70;41.30
3792;DHT22;1911;53.768;11.474;2024-01-25T00:34:22;7.70;81.30
3792;DHT22;1911;53.768;11.474;2024-01-25T00:36:47;7.70;88.80
3792;DHT22;1911;53.768;11.474;2024-01-25T00:39:13;7.80;50.40
3792;DHT22;1911;53.768;11.474;2024-01-25T00:41:40;7.70;95.10
3792;DHT22;1911;53.768;11.474;2024-01-25T00:44:09;7.70;99.90
3792;DHT22;1911;53.768;11.474;2024-01-25T00:46:35;7.70;94.50
3792;DHT22;1911;53.768;11.474;2024-01-25T00:49:01;7.70;67.70
3792;DHT22;1911;53.768;11.474;2024-01-25T00:51:27;7.70;53.10
3792;DHT22;1911;53.768;11.474;2024-01-25T00:53:53;7.80;35.30
3792;DHT22;1911;53.768;11.474;2024-01-25T00:56:19;7.70;43.10
3792;DHT22;1911;53.768;11.474;2024-01-25T00:58:45;7.70;48.10
3792;DHT22;1911;53.768;11.474;2024-01-25T01:01:10;7.70;43.20
3792;DHT22;1911;53.768;11.474;2024-01-25T01:03:36;7.70;56.90
3792;DHT22;1911;53.768;11.474;2024-01-25T01:06:02;7.80;41.50
3792;DHT22;1911;53.768;11.474;2024-01-25T01:08:28;7.70;57.90
3792;DHT22;1911;53.768;11.474;2024-01-25T01:10:54;7.70;37.10
3792;DHT22;1911;53.768;11.474;2024-01-25T01:13:19;7.70;38.90
3792;DHT22;1911;53.768;11.474;2024-01-25T01:15:45;7.70;51.80
3792;DHT22;1911;53.768;11.474;2024-01-25T01:18:11;7.70;55.20
3792;DHT22;1911;53.768;11.474;2024-01-25T01:20:36;7.60;75.00
3792;DHT22;1911;53.768;11.474;2024-01-25T01:23:02;7.60;96.90
3792;DHT22;1911;53.768;11.474;2024-01-25T01:25:28;7.60;99.90
3792;DHT22;1911;53.768;11.474;2024-01-25T01:27:53;7.60;99.90
3792;DHT22;1911;53.768;11.474;2024-01-25T01:30:19;7.60;99.90
3792;DHT22;1911;53.768;11.474;2024-01-25T01:32:45;7.50;99.90
3792;DHT22;1911;53.768;11.474;2024-01-25T01:35:10;7.50;99.90
3792;DHT22;1911;53.768;11.474;2024-01-25T01:37:36;7.50;99.90
3792;DHT22;1911;53.768;11.474;2024-01-25T01:40:02;7.40;99.90
3792;DHT22;1911;53.768;11.474;2024-01-25T01:42:28;7.40;99.90
3792;DHT22;1911;53.768;11.474;2024-01-25T01:44:53;7.40;99.90
3792;DHT22;1911;53.768;11.474;2024-01-25T01:47:19;7.50;99.90
3792;DHT22;1911;53.768;11.474;2024-01-25T01:49:45;7.50;99.90
3792;DHT22;1911;53.768;11.474;2024-01-25T01:52:11;7.50;99.90
3792;DHT22;1911;53.768;11.474;2024-01-25T01:54:38;7.40;99.90
3792;DHT22;1911;53.768;11.474;2024-01-25T01:57:04;7.40;99.90
3792;DHT22;1911;53.768;11.474;2024-01-25T01:59:30;7.40;99.90
3792;DHT22;1911;53.768;11.474;2024-01-25T02:07:09;7.40;99.90
3792;DHT22;1911;53.768;11.474;2024-01-25T02:09:35;7.40;99.30
3792;DHT22;1911;53.768;11.474;2024-01-25T02:12:01;7.40;92.50
3792;DHT22;1911;53.768;11.474;2024-01-25T02:14:28;7.40;82.20
3792;DHT22;1911;53.768;11.474;2024-01-25T02:16:53;7.40;49.40
3792;DHT22;1911;53.768;11.474;2024-01-25T02:19:19;7.50;82.10
3792;DHT22;1911;53.768;11.474;2024-01-25T02:21:45;7.40;78.50
3792;DHT22;1911;53.768;11.474;2024-01-25T02:24:10;7.50;32.40
3792;DHT22;1911;53.768;11.474;2024-01-25T02:26:36;7.50;2.90
3792;DHT22;1911;53.768;11.474;2024-01-25T02:29:01;7.50;24.30
3792;DHT22;1911;53.768;11.474;2024-01-25T02:31:30;7.50;1.00
3792;DHT22;1911;53.768;11.474;2024-01-25T02:33:55;7.50;14.40
3792;DHT22;1911;53.768;11.474;2024-01-25T02:36:24;7.60;1.00
3792;DHT22;1911;53.768;11.474;2024-01-25T02:38:50;7.50;1.00
3792;DHT22;1911;53.768;11.474;2024-01-25T02:41:15;7.50;1.00
3792;DHT22;1911;53.768;11.474;2024-01-25T02:43:41;7.60;1.00
3792;DHT22;1911;53.768;11.474;2024-01-25T02:46:07;7.50;1.00
3792;DHT22;1911;53.768;11.474;2024-01-25T02:48:34;7.50;1.00
3792;DHT22;1911;53.768;11.474;2024-01-25T02:50:59;7.60;1.00
3792;DHT22;1911;53.768;11.474;2024-01-25T02:53:25;7.50;1.00
3792;DHT22;1911;53.768;11.474;2024-01-25T02:55:51;7.60;1.00
3792;DHT22;1911;53.768;11.474;2024-01-25T02:58:16;7.60;1.00
3792;DHT22;1911;53.768;11.474;2024-01-25T03:00:42;7.60;1.00
3792;DHT22;1911;53.768;11.474;2024-01-25T03:03:08;7.60;1.00
3792;DHT22;1911;53.768;11.474;2024-01-25T03:05:33;7.60;1.00
3792;DHT22;1911;53.768;11.474;2024-01-25T03:08:00;7.60;1.00
3792;DHT22;1911;53.768;11.474;2024-01-25T03:10:25;7.50;1.00
3792;DHT22;1911;53.768;11.474;2024-01-25T03:12:51;7.50;1.00
3792;DHT22;1911;53.768;11.474;2024-01-25T03:15:17;7.60;1.00
3792;DHT22;1911;53.768;11.474;2024-01-25T03:17:42;7.50;1.00
3792;DHT22;1911;53.768;11.474;2024-01-25T03:20:09;7.40;1.00
3792;DHT22;1911;53.768;11.474;2024-01-25T03:22:35;7.50;1.00
3792;DHT22;1911;53.768;11.474;2024-01-25T03:25:01;7.50;1.00
3792;DHT22;1911;53.768;11.474;2024-01-25T03:27:26;7.50;1.00
3792;DHT22;1911;53.768;11.474;2024-01-25T03:29:52;7.50;1.00
3792;DHT22;1911;53.768;11.474;2024-01-25T03:32:18;7.50;1.00
3792;DHT22;1911;53.768;11.474;2024-01-25T03:34:44;7.50;1.00
3792;DHT22;1911;53.768;11.474;2024-01-25T03:37:10;7.40;1.00
3792;DHT22;1911;53.768;11.474;2024-01-25T03:39:36;7.40;1.00
3792;DHT22;1911;53.768;11.474;2024-01-25T03:42:01;7.40;3.90
3792;DHT22;1911;53.768;11.474;2024-01-25T03:44:27;7.40;1.00
3792;DHT22;1911;53.768;11.474;2024-01-25T03:46:53;7.40;11.60
3792;DHT22;1911;53.768;11.474;2024-01-25T03:49:18;7.40;28.00
3792;DHT22;1911;53.768;11.474;2024-01-25T03:51:45;7.40;34.10
3792;DHT22;1911;53.768;11.474;2024-01-25T03:54:10;7.40;50.70
3792;DHT22;1911;53.768;11.474;2024-01-25T03:56:36;7.40;48.20
3792;DHT22;1911;53.768;11.474;2024-01-25T03:59:01;7.30;56.60
3792;DHT22;1911;53.768;11.474;2024-01-25T04:01:27;7.40;25.40
3792;DHT22;1911;53.768;11.474;2024-01-25T04:03:52;7.40;42.80
3792;DHT22;1911;53.768;11.474;2024-01-25T04:06:18;7.30;59.00
3792;DHT22;1911;53.768;11.474;2024-01-25T04:08:45;7.30;63.90
3792;DHT22;1911;53.768;11.474;2024-01-25T04:11:10;7.30;50.10
3792;DHT22;1911;53.768;11.474;2024-01-25T04:13:36;7.30;69.10
3792;DHT22;1911;53.768;11.474;2024-01-25T04:16:01;7.40;61.50
3792;DHT22;1911;53.768;11.474;2024-01-25T04:18:27;7.30;83.60
3792;DHT22;1911;53.768;11.474;2024-01-25T04:20:53;7.30;98.00
3792;DHT22;1911;53.768;11.474;2024-01-25T04:23:18;7.30;99.90
3792;DHT22;1911;53.768;11.474;2024-01-25T04:25:44;7.30;90.50
3792;DHT22;1911;53.768;11.474;2024-01-25T04:28:09;7.30;77.20
3792;DHT22;1911;53.768;11.474;2024-01-25T04:30:35;7.30;14.70
3792;DHT22;1911;53.768;11.474;2024-01-25T04:33:02;7.40;1.00
3792;DHT22;1911;53.768;11.474;2024-01-25T04:35:27;7.40;1.00
3792;DHT22;1911;53.768;11.474;2024-01-25T04:37:53;7.40;1.00
3792;DHT22;1911;53.768;11.474;2024-01-25T04:40:19;7.40;1.00
3792;DHT22;1911;53.768;11.474;2024-01-25T04:42:44;7.30;1.00
3792;DHT22;1911;53.768;11.474;2024-01-25T04:45:10;7.30;12.50
3792;DHT22;1911;53.768;11.474;2024-01-25T04:47:37;7.30;14.90
3792;DHT22;1911;53.768;11.474;2024-01-25T04:50:04;7.30;17.80
3792;DHT22;1911;53.768;11.474;2024-01-25T04:52:30;7.30;4.00
3792;DHT22;1911;53.768;11.474;2024-01-25T04:54:55;7.30;13.40
3792;DHT22;1911;53.768;11.474;2024-01-25T04:57:21;7.30;10.90
3792;DHT22;1911;53.768;11.474;2024-01-25T04:59:47;7.30;24.40
3792;DHT22;1911;53.768;11.474;2024-01-25T05:02:12;7.20;46.50
3792;DHT22;1911;53.768;11.474;2024-01-25T05:04:38;7.30;37.50
3792;DHT22;1911;53.768;11.474;2024-01-25T05:07:03;7.20;57.80
3792;DHT22;1911;53.768;11.474;2024-01-25T05:09:29;7.20;64.80
3792;DHT22;1911;53.768;11.474;2024-01-25T05:11:54;7.20;70.30
3792;DHT22;1911;53.768;11.474;2024-01-25T05:14:24;7.20;96.70
3792;DHT22;1911;53.768;11.474;2024-01-25T05:16:50;7.20;99.90
3792;DHT22;1911;53.768;11.474;2024-01-25T05:19:15;7.20;99.90
3792;DHT22;1911;53.768;11.474;2024-01-25T05:21:41;7.10;99.90
3792;DHT22;1911;53.768;11.474;2024-01-25T05:24:06;7.10;99.90
3792;DHT22;1911;53.768;11.474;2024-01-25T05:26:33;7.10;99.90
3792;DHT22;1911;53.768;11.474;2024-01-25T05:28:58;7.10;99.90
3792;DHT22;1911;53.768;11.474;2024-01-25T05:31:24;7.10;99.90
3792;DHT22;1911;53.768;11.474;2024-01-25T05:33:50;7.10;98.50
3792;DHT22;1911;53.768;11.474;2024-01-25T05:36:15;7.10;99.90
3792;DHT22;1911;53.768;11.474;2024-01-25T05:38:41;7.10;99.90
3792;DHT22;1911;53.768;11.474;2024-01-25T05:41:06;7.10;99.90
3792;DHT22;1911;53.768;11.474;2024-01-25T05:43:33;7.10;99.90
3792;DHT22;1911;53.768;11.474;2024-01-25T05:45:58;7.10;99.90
3792;DHT22;1911;53.768;11.474;2024-01-25T05:48:24;7.00;99.90
3792;DHT22;1911;53.768;11.474;2024-01-25T05:50:49;7.00;99.90
3792;DHT22;1911;53.768;11.474;2024-01-25T05:53:15;7.00;99.90
3792;DHT22;1911;53.768;11.474;2024-01-25T05:55:44;7.10;99.90
3792;DHT22;1911;53.768;11.474;2024-01-25T05:58:10;7.10;99.90
3792;DHT22;1911;53.768;11.474;2024-01-25T06:00:35;7.00;99.90
3792;DHT22;1911;53.768;11.474;2024-01-25T06:03:01;7.00;99.90
3792;DHT22;1911;53.768;11.474;2024-01-25T06:05:27;6.90;99.90
3792;DHT22;1911;53.768;11.474;2024-01-25T06:07:52;6.90;99.90
3792;DHT22;1911;53.768;11.474;2024-01-25T06:10:18;6.90;99.90
3792;DHT22;1911;53.768;11.474;2024-01-25T06:12:44;6.80;99.90
3792;DHT22;1911;53.768;11.474;2024-01-25T06:15:09;6.90;99.90
3792;DHT22;1911;53.768;11.474;2024-01-25T06:17:35;6.80;99.90
3792;DHT22;1911;53.768;11.474;2024-01-25T06:20:01;6.80;99.90
3792;DHT22;1911;53.768;11.474;2024-01-25T06:22:28;6.80;99.90
3792;DHT22;1911;53.768;11.474;2024-01-25T06:24:53;6.70;99.90
3792;DHT22;1911;53.768;11.474;2024-01-25T06:27:19;6.70;99.90
3792;DHT22;1911;53.768;11.474;2024-01-25T06:29:45;6.70;99.90
3792;DHT22;1911;53.768;11.474;2024-01-25T06:32:10;6.60;99.90
3792;DHT22;1911;53.768;11.474;2024-01-25T06:34:36;6.60;99.90
3792;DHT22;1911;53.768;11.474;2024-01-25T06:37:02;6.60;99.90
3792;DHT22;1911;53.768;11.474;2024-01-25T06:39:27;6.70;99.90
3792;DHT22;1911;53.768;11.474;2024-01-25T06:41:53;6.70;99.90
3792;DHT22;1911;53.768;11.474;2024-01-25T06:44:18;6.60;99.90
3792;DHT22;1911;53.768;11.474;2024-01-25T06:46:44;6.50;99.90
3792;DHT22;1911;53.768;11.474;2024-01-25T06:49:10;6.50;99.90
3792;DHT22;1911;53.768;11.474;2024-01-25T06:51:35;6.60;99.90
3792;DHT22;1911;53.768;11.474;2024-01-25T06:54:01;6.50;99.90
3792;DHT22;1911;53.768;11.474;2024-01-25T06:56:26;6.50;99.90
3792;DHT22;1911;53.768;11.474;2024-01-25T06:58:52;6.50;99.90
3792;DHT22;1911;53.768;11.474;2024-01-25T07:01:21;6.40;99.90
3792;DHT22;1911;53.768;11.474;2024-01-25T07:03:48;6.40;99.90
3792;DHT22;1911;53.768;11.474;2024-01-25T07:06:16;6.40;99.90
3792;DHT22;1911;53.768;11.474;2024-01-25T07:08:42;6.40;99.90
3792;DHT22;1911;53.768;11.474;2024-01-25T07:11:15;6.40;99.90
3792;DHT22;1911;53.768;11.474;2024-01-25T07:13:50;6.40;99.90
3792;DHT22;1911;53.768;11.474;2024-01-25T07:16:18;6.40;99.90
3792;DHT22;1911;53.768;11.474;2024-01-25T07:18:45;6.40;99.90
3792;DHT22;1911;53.768;11.474;2024-01-25T07:21:11;6.40;99.90
3792;DHT22;1911;53.768;11.474;2024-01-25T07:23:36;6.40;99.90
3792;DHT22;1911;53.768;11.474;2024-01-25T07:26:02;6.40;99.90
3792;DHT22;1911;53.768;11.474;2024-01-25T07:28:28;6.30;99.90
3792;DHT22;1911;53.768;11.474;2024-01-25T07:30:53;6.40;99.90
3792;DHT22;1911;53.768;11.474;2024-01-25T07:33:19;6.40;99.90
3792;DHT22;1911;53.768;11.474;2024-01-25T07:35:44;6.40;99.90
3792;DHT22;1911;53.768;11.474;2024-01-25T07:38:16;6.40;99.90
3792;DHT22;1911;53.768;11.474;2024-01-25T07:40:43;6.30;99.90
3792;DHT22;1911;53.768;11.474;2024-01-25T07:43:09;6.30;99.90
3792;DHT22;1911;53.768;11.474;2024-01-25T07:45:35;6.30;99.90
3792;DHT22;1911;53.768;11.474;2024-01-25T07:48:00;6.40;99.90
3792;DHT22;1911;53.768;11.474;2024-01-25T07:50:26;6.40;99.90
3792;DHT22;1911;53.768;11.474;2024-01-25T07:52:54;6.40;99.90
3792;DHT22;1911;53.768;11.474;2024-01-25T07:55:20;6.40;99.90
3792;DHT22;1911;53.768;11.474;2024-01-25T07:57:48;6.40;99.90
3792;DHT22;1911;53.768;11.474;2024-01-25T08:00:13;6.50;99.90
3792;DHT22;1911;53.768;11.474;2024-01-25T08:02:42;6.40;99.90
3792;DHT22;1911;53.768;11.474;2024-01-25T08:05:10;6.50;99.90
3792;DHT22;1911;53.768;11.474;2024-01-25T08:07:39;6.50;99.90
3792;DHT22;1911;53.768;11.474;2024-01-25T08:10:07;6.40;99.90
3792;DHT22;1911;53.768;11.474;2024-01-25T08:12:33;6.40;99.90
3792;DHT22;1911;53.768;11.474;2024-01-25T08:14:58;6.40;99.90
3792;DHT22;1911;53.768;11.474;2024-01-25T08:17:24;6.40;99.90
3792;DHT22;1911;53.768;11.474;2024-01-25T08:19:50;6.50;99.90
3792;DHT22;1911;53.768;11.474;2024-01-25T08:22:15;6.50;99.90
3792;DHT22;1911;53.768;11.474;2024-01-25T08:24:41;6.50;99.90
3792;DHT22;1911;53.768;11.474;2024-01-25T08:27:06;6.50;99.90
3792;DHT22;1911;53.768;11.474;2024-01-25T08:29:35;6.50;99.90
3792;DHT22;1911;53.768;11.474;2024-01-25T08:32:03;6.50;99.90
3792;DHT22;1911;53.768;11.474;2024-01-25T08:34:28;6.50;99.90
3792;DHT22;1911;53.768;11.474;2024-01-25T08:36:54;6.50;99.90
3792;DHT22;1911;53.768;11.474;2024-01-25T08:39:19;6.50;99.90
3792;DHT22;1911;53.768;11.474;2024-01-25T08:41:45;6.50;99.90
3792;DHT22;1911;53.768;11.474;2024-01-25T08:44:12;6.50;99.90
3792;DHT22;1911;53.768;11.474;2024-01-25T08:46:37;6.60;99.90
3792;DHT22;1911;53.768;11.474;2024-01-25T08:49:04;6.60;99.90
3792;DHT22;1911;53.768;11.474;2024-01-25T08:51:34;6.60;99.90
3792;DHT22;1911;53.768;11.474;2024-01-25T08:53:59;6.70;99.90
3792;DHT22;1911;53.768;11.474;2024-01-25T08:56:25;6.70;99.90
3792;DHT22;1911;53.768;11.474;2024-01-25T08:58:50;6.90;99.90
3792;DHT22;1911;53.768;11.474;2024-01-25T09:01:17;6.90;99.90
3792;DHT22;1911;53.768;11.474;2024-01-25T09:03:43;6.80;99.90
3792;DHT22;1911;53.768;11.474;2024-01-25T09:06:09;6.80;99.90
3792;DHT22;1911;53.768;11.474;2024-01-25T09:08:34;6.80;99.90
3792;DHT22;1911;53.768;11.474;2024-01-25T09:11:00;6.80;99.90
3792;DHT22;1911;53.768;11.474;2024-01-25T09:13:26;6.80;99.90
3792;DHT22;1911;53.768;11.474;2024-01-25T09:15:51;6.90;99.90
3792;DHT22;1911;53.768;11.474;2024-01-25T09:18:17;6.90;99.90
3792;DHT22;1911;53.768;11.474;2024-01-25T09:20:43;6.90;99.90
3792;DHT22;1911;53.768;11.474;2024-01-25T09:23:16;6.90;99.90
3792;DHT22;1911;53.768;11.474;2024-01-25T09:25:42;7.00;99.90
3792;DHT22;1911;53.768;11.474;2024-01-25T09:28:08;7.00;99.90
3792;DHT22;1911;53.768;11.474;2024-01-25T09:30:34;7.00;99.90
3792;DHT22;1911;53.768;11.474;2024-01-25T09:32:59;7.10;99.90
3792;DHT22;1911;53.768;11.474;2024-01-25T09:35:25;7.10;99.90
3792;DHT22;1911;53.768;11.474;2024-01-25T09:37:51;7.30;99.90
3792;DHT22;1911;53.768;11.474;2024-01-25T09:40:18;7.40;99.90
3792;DHT22;1911;53.768;11.474;2024-01-25T09:42:47;7.30;99.90
3792;DHT22;1911;53.768;11.474;2024-01-25T09:45:17;7.40;99.90
3792;DHT22;1911;53.768;11.474;2024-01-25T09:47:44;7.50;99.90
3792;DHT22;1911;53.768;11.474;2024-01-25T09:50:10;7.40;99.90
3792;DHT22;1911;53.768;11.474;2024-01-25T09:52:35;7.20;99.90
3792;DHT22;1911;53.768;11.474;2024-01-25T09:55:01;7.30;99.90
3792;DHT22;1911;53.768;11.474;2024-01-25T09:57:28;7.30;99.90
3792;DHT22;1911;53.768;11.474;2024-01-25T09:59:55;7.30;99.90
3792;DHT22;1911;53.768;11.474;2024-01-25T10:02:21;7.30;99.90
3792;DHT22;1911;53.768;11.474;2024-01-25T10:04:50;7.30;99.90
3792;DHT22;1911;53.768;11.474;2024-01-25T10:07:38;7.30;99.90
3792;DHT22;1911;53.768;11.474;2024-01-25T10:10:04;7.30;99.90
3792;DHT22;1911;53.768;11.474;2024-01-25T10:12:31;7.30;99.90
3792;DHT22;1911;53.768;11.474;2024-01-25T10:14:57;7.20;99.90
3792;DHT22;1911;53.768;11.474;2024-01-25T10:17:22;7.30;99.90
3792;DHT22;1911;53.768;11.474;2024-01-25T10:19:48;7.30;99.90
3792;DHT22;1911;53.768;11.474;2024-01-25T10:22:14;7.30;99.90
3792;DHT22;1911;53.768;11.474;2024-01-25T10:24:40;7.30;99.90
3792;DHT22;1911;53.768;11.474;2024-01-25T10:27:07;7.40;99.90
3792;DHT22;1911;53.768;11.474;2024-01-25T10:29:34;7.40;99.90
3792;DHT22;1911;53.768;11.474;2024-01-25T10:32:02;7.50;99.90
3792;DHT22;1911;53.768;11.474;2024-01-25T10:34:29;7.50;99.90
3792;DHT22;1911;53.768;11.474;2024-01-25T10:36:55;7.50;99.90
3792;DHT22;1911;53.768;11.474;2024-01-25T10:39:21;7.50;99.90
3792;DHT22;1911;53.768;11.474;2024-01-25T10:41:47;7.50;99.90
3792;DHT22;1911;53.768;11.474;2024-01-25T10:44:19;7.50;99.90
3792;DHT22;1911;53.768;11.474;2024-01-25T10:46:48;7.40;99.90
3792;DHT22;1911;53.768;11.474;2024-01-25T10:49:14;7.60;99.90
3792;DHT22;1911;53.768;11.474;2024-01-25T10:51:41;7.60;99.90
3792;DHT22;1911;53.768;11.474;2024-01-25T10:54:11;7.50;99.90
3792;DHT22;1911;53.768;11.474;2024-01-25T10:56:46;7.50;99.90
3792;DHT22;1911;53.768;11.474;2024-01-25T10:59:12;7.50;99.90
3792;DHT22;1911;53.768;11.474;2024-01-25T11:01:43;7.70;99.90
3792;DHT22;1911;53.768;11.474;2024-01-25T11:04:13;7.80;99.90
3792;DHT22;1911;53.768;11.474;2024-01-25T11:06:39;7.70;99.90
3792;DHT22;1911;53.768;11.474;2024-01-25T11:09:05;7.60;99.90
3792;DHT22;1911;53.768;11.474;2024-01-25T11:11:32;7.50;99.90
3792;DHT22;1911;53.768;11.474;2024-01-25T11:13:58;7.60;99.90
3792;DHT22;1911;53.768;11.474;2024-01-25T11:16:29;7.60;99.90
3792;DHT22;1911;53.768;11.474;2024-01-25T11:18:56;7.60;99.90
3792;DHT22;1911;53.768;11.474;2024-01-25T11:21:46;7.50;99.90
3792;DHT22;1911;53.768;11.474;2024-01-25T11:24:19;7.40;99.90
3792;DHT22;1911;53.768;11.474;2024-01-25T11:26:45;7.40;99.90
3792;DHT22;1911;53.768;11.474;2024-01-25T11:29:16;7.40;99.90
3792;DHT22;1911;53.768;11.474;2024-01-25T11:31:46;7.50;99.90
3792;DHT22;1911;53.768;11.474;2024-01-25T11:34:13;7.50;99.90
3792;DHT22;1911;53.768;11.474;2024-01-25T11:36:39;7.50;99.90
3792;DHT22;1911;53.768;11.474;2024-01-25T11:39:05;7.60;99.90
3792;DHT22;1911;53.768;11.474;2024-01-25T11:41:32;7.50;99.90
3792;DHT22;1911;53.768;11.474;2024-01-25T11:43:58;7.60;99.90
3792;DHT22;1911;53.768;11.474;2024-01-25T11:46:25;7.70;99.90
3792;DHT22;1911;53.768;11.474;2024-01-25T11:48:51;7.70;99.90
3792;DHT22;1911;53.768;11.474;2024-01-25T11:51:17;7.80;99.90
3792;DHT22;1911;53.768;11.474;2024-01-25T11:53:42;7.90;99.90
3792;DHT22;1911;53.768;11.474;2024-01-25T11:56:14;7.90;99.90
3792;DHT22;1911;53.768;11.474;2024-01-25T11:58:43;7.90;99.90
3792;DHT22;1911;53.768;11.474;2024-01-25T12:01:08;8.00;99.90
3792;DHT22;1911;53.768;11.474;2024-01-25T12:03:35;7.90;99.90
3792;DHT22;1911;53.768;11.474;2024-01-25T12:06:05;7.90;99.90
3792;DHT22;1911;53.768;11.474;2024-01-25T12:08:32;7.90;99.90
3792;DHT22;1911;53.768;11.474;2024-01-25T12:11:05;7.90;99.90
3792;DHT22;1911;53.768;11.474;2024-01-25T12:13:49;7.90;99.90
3792;DHT22;1911;53.768;11.474;2024-01-25T12:16:14;7.90;99.70
3792;DHT22;1911;53.768;11.474;2024-01-25T12:18:41;8.00;99.90
3792;DHT22;1911;53.768;11.474;2024-01-25T12:21:08;8.00;99.90
3792;DHT22;1911;53.768;11.474;2024-01-25T12:23:38;8.00;99.90
3792;DHT22;1911;53.768;11.474;2024-01-25T12:26:05;8.00;99.90
3792;DHT22;1911;53.768;11.474;2024-01-25T12:28:31;7.90;99.90
3792;DHT22;1911;53.768;11.474;2024-01-25T12:31:00;8.00;99.90
3792;DHT22;1911;53.768;11.474;2024-01-25T12:33:27;8.00;85.00
3792;DHT22;1911;53.768;11.474;2024-01-25T12:35:53;8.00;82.40
3792;DHT22;1911;53.768;11.474;2024-01-25T12:38:21;8.00;93.60
3792;DHT22;1911;53.768;11.474;2024-01-25T12:40:48;8.00;99.90
3792;DHT22;1911;53.768;11.474;2024-01-25T12:43:17;8.00;90.80
3792;DHT22;1911;53.768;11.474;2024-01-25T12:45:44;8.10;91.80
3792;DHT22;1911;53.768;11.474;2024-01-25T12:48:10;8.10;89.10
3792;DHT22;1911;53.768;11.474;2024-01-25T12:50:36;8.10;92.10
3792;DHT22;1911;53.768;11.474;2024-01-25T12:53:02;8.10;98.10
3792;DHT22;1911;53.768;11.474;2024-01-25T12:55:29;8.10;68.20
3792;DHT22;1911;53.768;11.474;2024-01-25T12:57:56;8.10;60.60
3792;DHT22;1911;53.768;11.474;2024-01-25T13:00:22;8.10;60.50
3792;DHT22;1911;53.768;11.474;2024-01-25T13:02:48;8.10;95.60
3792;DHT22;1911;53.768;11.474;2024-01-25T13:05:14;8.10;54.50
3792;DHT22;1911;53.768;11.474;2024-01-25T13:07:40;8.00;78.90
3792;DHT22;1911;53.768;11.474;2024-01-25T13:10:07;7.90;98.70
3792;DHT22;1911;53.768;11.474;2024-01-25T13:12:32;7.90;99.90
3792;DHT22;1911;53.768;11.474;2024-01-25T13:14:58;7.90;99.90
3792;DHT22;1911;53.768;11.474;2024-01-25T13:17:23;7.90;99.90
3792;DHT22;1911;53.768;11.474;2024-01-25T13:19:50;7.90;99.90
3792;DHT22;1911;53.768;11.474;2024-01-25T13:22:16;7.90;99.90
3792;DHT22;1911;53.768;11.474;2024-01-25T13:24:50;7.90;99.90
3792;DHT22;1911;53.768;11.474;2024-01-25T13:27:15;8.00;99.90
3792;DHT22;1911;53.768;11.474;2024-01-25T13:29:41;8.10;72.90
3792;DHT22;1911;53.768;11.474;2024-01-25T13:32:07;8.00;90.70
3792;DHT22;1911;53.768;11.474;2024-01-25T13:34:33;8.00;93.10
3792;DHT22;1911;53.768;11.474;2024-01-25T13:36:59;8.00;99.90
3792;DHT22;1911;53.768;11.474;2024-01-25T13:39:24;7.90;97.00
3792;DHT22;1911;53.768;11.474;2024-01-25T13:41:51;7.80;99.90
3792;DHT22;1911;53.768;11.474;2024-01-25T13:44:16;7.80;99.90
3792;DHT22;1911;53.768;11.474;2024-01-25T13:46:42;7.70;99.90
3792;DHT22;1911;53.768;11.474;2024-01-25T13:49:08;7.70;99.90
3792;DHT22;1911;53.768;11.474;2024-01-25T13:51:34;7.70;99.90
3792;DHT22;1911;53.768;11.474;2024-01-25T13:53:59;7.60;99.90
3792;DHT22;1911;53.768;11.474;2024-01-25T13:56:25;7.50;99.90
3792;DHT22;1911;53.768;11.474;2024-01-25T13:58:51;7.50;99.90
3792;DHT22;1911;53.768;11.474;2024-01-25T14:01:17;7.50;99.90
3792;DHT22;1911;53.768;11.474;2024-01-25T14:03:43;7.40;99.90
3792;DHT22;1911;53.768;11.474;2024-01-25T14:06:08;7.40;99.90
3792;DHT22;1911;53.768;11.474;2024-01-25T14:08:35;7.40;99.90
3792;DHT22;1911;53.768;11.474;2024-01-25T14:11:02;7.40;99.90
3792;DHT22;1911;53.768;11.474;2024-01-25T14:13:27;7.40;99.90
3792;DHT22;1911;53.768;11.474;2024-01-25T14:15:53;7.30;99.90
3792;DHT22;1911;53.768;11.474;2024-01-25T14:18:18;7.40;99.90
3792;DHT22;1911;53.768;11.474;2024-01-25T14:20:44;7.30;99.90
3792;DHT22;1911;53.768;11.474;2024-01-25T14:23:14;7.30;99.90
3792;DHT22;1911;53.768;11.474;2024-01-25T14:26:00;7.30;99.90
3792;DHT22;1911;53.768;11.474;2024-01-25T14:28:47;7.20;99.90
3792;DHT22;1911;53.768;11.474;2024-01-25T15:08:30;6.80;99.90
3792;DHT22;1911;53.768;11.474;2024-01-25T15:10:55;6.70;99.90
3792;DHT22;1911;53.768;11.474;2024-01-25T15:13:21;6.70;99.90
3792;DHT22;1911;53.768;11.474;2024-01-25T15:15:47;6.60;99.90
3792;DHT22;1911;53.768;11.474;2024-01-25T15:18:12;6.60;99.90
3792;DHT22;1911;53.768;11.474;2024-01-25T15:20:38;6.60;99.90
3792;DHT22;1911;53.768;11.474;2024-01-25T15:23:03;6.60;99.90
3792;DHT22;1911;53.768;11.474;2024-01-25T15:25:29;6.50;99.90
3792;DHT22;1911;53.768;11.474;2024-01-25T15:27:54;6.50;99.90
3792;DHT22;1911;53.768;11.474;2024-01-25T15:30:20;6.50;99.90
3792;DHT22;1911;53.768;11.474;2024-01-25T15:32:46;6.50;99.90
3792;DHT22;1911;53.768;11.474;2024-01-25T15:35:13;6.40;99.90
3792;DHT22;1911;53.768;11.474;2024-01-25T15:37:38;6.40;99.90
3792;DHT22;1911;53.768;11.474;2024-01-25T15:40:07;6.30;99.90
3792;DHT22;1911;53.768;11.474;2024-01-25T15:42:36;6.30;99.90
3792;DHT22;1911;53.768;11.474;2024-01-25T15:45:03;6.30;99.90
3792;DHT22;1911;53.768;11.474;2024-01-25T15:47:29;6.30;99.90
3792;DHT22;1911;53.768;11.474;2024-01-25T15:49:55;6.20;99.90
3792;DHT22;1911;53.768;11.474;2024-01-25T15:52:21;6.20;99.90
3792;DHT22;1911;53.768;11.474;2024-01-25T15:54:47;6.20;99.90
3792;DHT22;1911;53.768;11.474;2024-01-25T15:57:12;6.10;99.90
3792;DHT22;1911;53.768;11.474;2024-01-25T15:59:38;6.20;99.90
3792;DHT22;1911;53.768;11.474;2024-01-25T16:02:04;6.10;99.90
3792;DHT22;1911;53.768;11.474;2024-01-25T16:04:30;6.10;99.90
3792;DHT22;1911;53.768;11.474;2024-01-25T16:06:56;6.10;99.90
3792;DHT22;1911;53.768;11.474;2024-01-25T16:09:21;6.10;99.90
3792;DHT22;1911;53.768;11.474;2024-01-25T16:11:47;6.10;99.90
3792;DHT22;1911;53.768;11.474;2024-01-25T16:14:12;6.00;99.90
3792;DHT22;1911;53.768;11.474;2024-01-25T16:16:56;6.00;99.90
3792;DHT22;1911;53.768;11.474;2024-01-25T16:19:26;6.00;99.90
3792;DHT22;1911;53.768;11.474;2024-01-25T20:20:18;4.20;99.90
3792;DHT22;1911;53.768;11.474;2024-01-25T20:22:43;4.10;99.90
3792;DHT22;1911;53.768;11.474;2024-01-25T20:25:09;3.90;99.90
3792;DHT22;1911;53.768;11.474;2024-01-25T20:27:35;3.90;99.90
3792;DHT22;1911;53.768;11.474;2024-01-25T20:30:01;3.70;99.90
3792;DHT22;1911;53.768;11.474;2024-01-25T20:32:27;3.70;99.90
3792;DHT22;1911;53.768;11.474;2024-01-25T20:34:53;3.60;99.90
3792;DHT22;1911;53.768;11.474;2024-01-25T20:37:18;3.50;99.90